createdAt,value
2022-09-26T00:01:41.725Z,5.37
2022-09-26T00:04:15.760Z,5.90
2022-09-26T00:06:44.501Z,5.33
2022-09-26T00:09:13.649Z,5.30
2022-09-26T00:11:42.654Z,4.97
2022-09-26T00:14:29.121Z,4.77
2022-09-26T00:16:57.845Z,5.53
2022-09-26T00:19:27.670Z,5.73
2022-09-26T00:21:56.160Z,5.40
2022-09-26T00:24:24.518Z,5.10
2022-09-26T00:26:52.821Z,5.60
2022-09-26T00:29:21.206Z,5.80
2022-09-26T00:31:49.800Z,5.10
2022-09-26T00:34:20.015Z,6.30
2022-09-26T00:36:51.183Z,5.33
2022-09-26T00:39:19.741Z,5.23
2022-09-26T00:41:48.153Z,4.73
2022-09-26T00:44:47.802Z,5.67
2022-09-26T00:47:41.398Z,5.20
2022-09-26T00:50:16.104Z,5.00
2022-09-26T00:52:47.986Z,4.97
2022-09-26T00:55:18.772Z,5.03
2022-09-26T00:57:51.608Z,4.53
2022-09-26T01:00:20.239Z,5.10
2022-09-26T01:02:49.518Z,4.80
2022-09-26T01:05:20.051Z,5.13
2022-09-26T01:07:50.385Z,4.93
2022-09-26T01:10:19.085Z,4.83
2022-09-26T01:12:47.743Z,5.30
2022-09-26T01:15:16.258Z,5.47
2022-09-26T01:17:45.790Z,5.93
2022-09-26T01:20:26.756Z,6.10
2022-09-26T01:23:35.887Z,5.67
2022-09-26T01:26:40.104Z,5.77
2022-09-26T01:29:29.742Z,5.67
2022-09-26T01:32:22.413Z,6.10
2022-09-26T01:34:56.682Z,6.20
2022-09-26T01:37:30.624Z,5.67
2022-09-26T01:40:06.089Z,6.07
2022-09-26T01:42:39.625Z,6.80
2022-09-26T01:45:12.426Z,6.20
2022-09-26T01:47:43.939Z,6.27
2022-09-26T01:50:16.500Z,6.30
2022-09-26T01:52:48.891Z,7.03
2022-09-26T01:55:19.587Z,6.80
2022-09-26T01:57:50.703Z,6.00
2022-09-26T02:00:19.830Z,6.60
2022-09-26T02:02:50.942Z,6.30
2022-09-26T02:05:26.293Z,6.10
2022-09-26T02:07:56.945Z,7.07
2022-09-26T02:10:28.942Z,6.47
2022-09-26T02:13:01.258Z,6.57
2022-09-26T02:15:32.572Z,7.23
2022-09-26T02:18:08.949Z,7.00
2022-09-26T02:20:39.691Z,6.40
2022-09-26T02:23:08.870Z,6.50
2022-09-26T02:25:37.614Z,8.03
2022-09-26T02:28:06.064Z,7.13
2022-09-26T02:30:34.786Z,6.63
2022-09-26T02:33:04.766Z,7.40
2022-09-26T02:35:52.582Z,5.90
2022-09-26T02:38:21.062Z,7.27
2022-09-26T02:41:02.142Z,6.70
2022-09-26T02:43:45.424Z,5.50
2022-09-26T02:46:28.682Z,8.00
2022-09-26T02:49:09.522Z,5.73
2022-09-26T02:51:55.515Z,6.00
2022-09-26T02:54:28.083Z,5.30
2022-09-26T02:57:08.089Z,6.00
2022-09-26T02:59:45.210Z,6.03
2022-09-26T03:02:16.606Z,8.10
2022-09-26T03:04:55.047Z,9.00
2022-09-26T03:07:27.961Z,8.00
2022-09-26T03:09:57.605Z,7.00
2022-09-26T03:12:26.973Z,8.10
2022-09-26T03:14:58.663Z,7.77
2022-09-26T03:17:29.079Z,7.43
2022-09-26T03:20:02.970Z,6.83
2022-09-26T03:22:33.532Z,7.80
2022-09-26T03:25:01.994Z,7.70
2022-09-26T03:27:33.127Z,7.97
2022-09-26T03:30:01.732Z,6.80
2022-09-26T03:32:30.177Z,8.03
2022-09-26T03:34:59.931Z,8.20
2022-09-26T03:37:28.396Z,6.73
2022-09-26T03:39:56.791Z,7.83
2022-09-26T03:42:38.797Z,7.90
2022-09-26T03:45:10.385Z,7.93
2022-09-26T03:47:58.022Z,7.90
2022-09-26T03:50:28.341Z,8.23
2022-09-26T03:52:56.883Z,8.17
2022-09-26T03:55:25.234Z,8.13
2022-09-26T03:57:53.624Z,8.13
2022-09-26T04:00:30.054Z,6.93
2022-09-26T04:03:03.044Z,8.13
2022-09-26T04:05:41.170Z,7.27
2022-09-26T04:08:10.164Z,6.53
2022-09-26T04:10:40.102Z,5.60
2022-09-26T04:13:09.676Z,5.67
2022-09-26T04:15:39.155Z,6.27
2022-09-26T04:18:13.352Z,5.13
2022-09-26T04:20:44.062Z,6.63
2022-09-26T04:23:13.547Z,6.20
2022-09-26T04:25:42.081Z,4.53
2022-09-26T04:28:10.466Z,5.47
2022-09-26T04:30:40.097Z,5.27
2022-09-26T04:33:12.451Z,5.17
2022-09-26T04:35:53.292Z,5.07
2022-09-26T04:38:21.748Z,4.53
2022-09-26T04:40:50.196Z,5.10
2022-09-26T04:43:18.614Z,5.40
2022-09-26T04:45:48.248Z,5.43
2022-09-26T04:48:16.929Z,5.20
2022-09-26T04:50:45.963Z,5.60
2022-09-26T04:53:16.211Z,5.23
2022-09-26T04:55:54.855Z,5.87
2022-09-26T04:58:23.464Z,3.90
2022-09-26T05:00:52.487Z,5.53
2022-09-26T05:03:36.668Z,4.20
2022-09-26T05:06:07.223Z,3.70
2022-09-26T05:08:37.487Z,4.80
2022-09-26T05:11:07.368Z,4.10
2022-09-26T05:13:37.346Z,4.90
2022-09-26T05:16:08.818Z,4.30
2022-09-26T05:18:39.283Z,4.23
2022-09-26T05:21:08.738Z,4.60
2022-09-26T05:23:56.251Z,4.40
2022-09-26T05:26:27.106Z,4.90
2022-09-26T05:28:56.580Z,3.50
2022-09-26T05:31:30.163Z,4.20
2022-09-26T05:33:58.662Z,5.33
2022-09-26T05:36:27.696Z,4.10
2022-09-26T05:38:57.792Z,2.90
2022-09-26T05:41:28.038Z,5.40
2022-09-26T05:43:56.983Z,3.67
2022-09-26T05:46:28.394Z,5.60
2022-09-26T05:49:00.131Z,5.63
2022-09-26T05:51:29.368Z,4.10
2022-09-26T05:53:59.216Z,4.97
2022-09-26T05:56:29.127Z,5.20
2022-09-26T05:59:09.928Z,5.03
2022-09-26T06:01:57.565Z,4.50
2022-09-26T06:04:44.262Z,4.27
2022-09-26T06:07:40.080Z,4.67
2022-09-26T06:10:14.048Z,5.50
2022-09-26T06:12:52.084Z,5.33
2022-09-26T06:15:20.686Z,5.03
2022-09-26T06:17:49.297Z,3.87
2022-09-26T06:20:19.420Z,4.90
2022-09-26T06:22:48.332Z,4.80
2022-09-26T06:25:18.319Z,5.23
2022-09-26T06:27:47.496Z,5.07
2022-09-26T06:30:17.779Z,5.40
2022-09-26T06:32:47.352Z,5.60
2022-09-26T06:35:22.621Z,5.30
2022-09-26T06:38:09.769Z,4.27
2022-09-26T06:40:39.679Z,4.00
2022-09-26T06:43:08.199Z,5.30
2022-09-26T06:45:56.853Z,4.97
2022-09-26T06:48:42.995Z,5.13
2022-09-26T06:51:21.489Z,5.37
2022-09-26T06:53:49.924Z,5.67
2022-09-26T06:56:23.555Z,4.93
2022-09-26T06:58:51.973Z,4.80
2022-09-26T07:01:24.779Z,5.40
2022-09-26T07:04:04.750Z,5.20
2022-09-26T07:06:39.050Z,4.97
2022-09-26T07:09:12.195Z,5.73
2022-09-26T07:12:14.310Z,5.33
2022-09-26T07:14:47.899Z,5.27
2022-09-26T07:17:23.462Z,3.83
2022-09-26T07:20:11.440Z,4.10
2022-09-26T07:22:58.768Z,4.17
2022-09-26T07:25:27.404Z,4.57
2022-09-26T07:27:57.666Z,4.07
2022-09-26T07:30:36.089Z,5.07
2022-09-26T07:33:11.015Z,3.90
2022-09-26T07:35:46.555Z,3.57
2022-09-26T07:38:15.193Z,4.10
2022-09-26T07:40:44.228Z,4.57
2022-09-26T07:43:35.618Z,4.10
2022-09-26T07:46:20.072Z,5.20
2022-09-26T07:49:09.050Z,4.80
2022-09-26T07:52:00.910Z,5.30
2022-09-26T07:54:40.066Z,5.60
2022-09-26T07:57:27.216Z,5.27
2022-09-26T08:00:19.551Z,5.13
2022-09-26T08:03:02.056Z,4.77
2022-09-26T08:05:32.380Z,4.80
2022-09-26T08:08:01.451Z,3.70
2022-09-26T08:10:48.691Z,5.10
2022-09-26T08:13:36.040Z,5.37
2022-09-26T08:16:24.433Z,4.37
2022-09-26T08:18:56.197Z,3.37
2022-09-26T08:21:26.499Z,3.70
2022-09-26T08:23:59.873Z,2.87
2022-09-26T08:26:46.716Z,3.90
2022-09-26T08:29:21.738Z,2.80
2022-09-26T08:31:54.856Z,3.70
2022-09-26T08:34:25.740Z,3.70
2022-09-26T08:37:31.112Z,3.10
2022-09-26T08:40:28.127Z,3.53
2022-09-26T08:43:04.298Z,2.83
2022-09-26T08:46:32.556Z,3.83
2022-09-26T08:49:42.373Z,4.00
2022-09-26T08:52:31.738Z,3.40
2022-09-26T08:55:03.491Z,3.77
2022-09-26T08:57:35.758Z,3.90
2022-09-26T09:00:15.463Z,4.07
2022-09-26T09:02:49.126Z,3.77
2022-09-26T09:05:23.339Z,3.50
2022-09-26T09:07:55.004Z,3.03
2022-09-26T09:10:35.836Z,3.17
2022-09-26T09:13:34.117Z,3.20
2022-09-26T09:16:23.866Z,2.73
2022-09-26T09:19:08.996Z,3.00
2022-09-26T09:22:06.039Z,4.70
2022-09-26T09:25:00.280Z,4.37
2022-09-26T09:28:00.352Z,4.07
2022-09-26T09:30:36.725Z,4.50
2022-09-26T09:33:26.234Z,4.00
2022-09-26T09:36:17.989Z,3.43
2022-09-26T09:39:06.355Z,3.20
2022-09-26T09:41:54.689Z,3.30
2022-09-26T09:44:31.410Z,2.90
2022-09-26T09:47:00.499Z,3.20
2022-09-26T09:49:29.206Z,2.40
2022-09-26T09:52:08.957Z,3.27
2022-09-26T09:54:46.182Z,3.27
2022-09-26T09:57:34.951Z,2.90
2022-09-26T10:00:11.578Z,2.87
2022-09-26T10:03:18.989Z,3.10
2022-09-26T10:05:51.682Z,3.60
2022-09-26T10:08:31.267Z,3.30
2022-09-26T10:11:23.378Z,2.90
2022-09-26T10:14:03.102Z,2.97
2022-09-26T10:17:15.206Z,3.00
2022-09-26T10:20:04.225Z,2.47
2022-09-26T10:22:38.178Z,2.90
2022-09-26T10:25:09.878Z,2.57
2022-09-26T10:27:41.081Z,3.13
2022-09-26T10:30:26.892Z,2.90
2022-09-26T10:33:00.234Z,2.13
2022-09-26T10:35:52.854Z,2.50
2022-09-26T10:38:24.123Z,2.40
2022-09-26T10:40:59.718Z,2.67
2022-09-26T10:43:32.851Z,2.73
2022-09-26T10:46:11.970Z,2.93
2022-09-26T10:48:51.760Z,3.37
2022-09-26T10:51:45.446Z,2.57
2022-09-26T10:54:18.804Z,2.17
2022-09-26T10:56:50.885Z,2.40
2022-09-26T10:59:27.269Z,2.53
2022-09-26T11:01:59.392Z,2.40
2022-09-26T11:04:47.439Z,2.50
2022-09-26T11:07:42.817Z,2.30
2022-09-26T11:10:38.344Z,2.13
2022-09-26T11:13:22.487Z,2.10
2022-09-26T11:16:02.377Z,2.27
2022-09-26T11:18:37.137Z,1.87
2022-09-26T11:21:27.479Z,2.50
2022-09-26T11:24:02.970Z,2.10
2022-09-26T11:26:36.440Z,2.13
2022-09-26T11:29:13.458Z,2.50
2022-09-26T11:32:06.481Z,2.20
2022-09-26T11:34:48.422Z,2.37
2022-09-26T11:37:54.598Z,2.20
2022-09-26T11:40:34.693Z,1.87
2022-09-26T11:43:16.492Z,1.67
2022-09-26T11:45:59.047Z,1.70
2022-09-26T11:49:01.992Z,1.50
2022-09-26T11:52:02.111Z,1.70
2022-09-26T11:54:46.979Z,1.43
2022-09-26T11:57:35.524Z,1.77
2022-09-26T12:00:09.194Z,1.53
2022-09-26T12:03:05.027Z,1.63
2022-09-26T12:05:44.206Z,1.70
2022-09-26T12:08:24.730Z,1.67
2022-09-26T12:10:57.679Z,1.87
2022-09-26T12:13:35.203Z,1.50
2022-09-26T12:16:12.830Z,1.40
2022-09-26T12:18:49.525Z,1.60
2022-09-26T12:21:27.398Z,1.53
2022-09-26T12:23:57.758Z,1.90
2022-09-26T12:26:34.721Z,1.60
2022-09-26T12:29:16.250Z,1.73
2022-09-26T12:31:54.804Z,1.43
2022-09-26T12:34:48.146Z,1.77
2022-09-26T12:37:33.581Z,2.10
2022-09-26T12:40:14.253Z,1.53
2022-09-26T12:43:05.744Z,1.60
2022-09-26T12:45:53.556Z,1.60
2022-09-26T12:48:40.166Z,1.80
2022-09-26T12:51:19.967Z,1.60
2022-09-26T12:54:17.662Z,1.70
2022-09-26T12:56:53.175Z,1.80
2022-09-26T12:59:52.447Z,1.83
2022-09-26T13:02:37.582Z,1.40
2022-09-26T13:05:17.459Z,1.80
2022-09-26T13:07:54.696Z,1.63
2022-09-26T13:10:38.380Z,1.77
2022-09-26T13:13:33.774Z,1.80
2022-09-26T13:16:13.714Z,1.77
2022-09-26T13:18:44.788Z,1.73
2022-09-26T13:21:16.507Z,1.97
2022-09-26T13:23:53.578Z,1.63
2022-09-26T13:26:29.053Z,1.90
2022-09-26T13:29:16.662Z,1.73
2022-09-26T13:31:48.724Z,1.90
2022-09-26T13:34:21.501Z,1.70
2022-09-26T13:36:50.832Z,1.90
2022-09-26T13:39:26.869Z,1.87
2022-09-26T13:42:01.360Z,2.10
2022-09-26T13:44:55.722Z,2.00
2022-09-26T13:47:31.226Z,1.93
2022-09-26T13:50:03.442Z,1.70
2022-09-26T13:52:43.169Z,2.00
2022-09-26T13:55:14.498Z,1.63
2022-09-26T13:57:51.351Z,1.47
2022-09-26T14:00:49.113Z,1.23
2022-09-26T14:03:41.688Z,1.50
2022-09-26T14:06:29.389Z,1.67
2022-09-26T14:09:24.251Z,1.50
2022-09-26T14:12:19.093Z,1.47
2022-09-26T14:14:54.114Z,1.40
2022-09-26T14:18:15.413Z,1.50
2022-09-26T14:20:55.004Z,1.50
2022-09-26T14:23:44.888Z,1.40
2022-09-26T14:26:21.032Z,1.17
2022-09-26T14:28:54.564Z,1.30
2022-09-26T14:31:40.180Z,1.30
2022-09-26T14:34:20.162Z,1.50
2022-09-26T14:36:49.425Z,1.60
2022-09-26T14:39:40.481Z,1.33
2022-09-26T14:42:19.132Z,1.37
2022-09-26T14:44:52.575Z,1.63
2022-09-26T14:47:22.629Z,1.20
2022-09-26T14:49:59.047Z,1.37
2022-09-26T14:52:27.671Z,1.40
2022-09-26T14:58:17.229Z,1.23
2022-09-26T15:00:47.806Z,1.67
2022-09-26T15:03:18.685Z,1.20
2022-09-26T15:05:47.914Z,1.23
2022-09-26T15:08:24.783Z,1.10
2022-09-26T15:10:54.439Z,0.93
2022-09-26T15:13:35.308Z,1.50
2022-09-26T15:16:15.842Z,1.47
2022-09-26T15:18:48.178Z,1.20
2022-09-26T15:21:27.055Z,1.10
2022-09-26T15:23:56.447Z,1.33
2022-09-26T15:26:26.446Z,1.30
2022-09-26T15:28:56.493Z,1.20
2022-09-26T15:31:28.075Z,1.10
2022-09-26T15:34:16.110Z,1.00
2022-09-26T15:36:45.521Z,0.77
2022-09-26T15:39:46.724Z,1.13
2022-09-26T15:42:46.542Z,1.23
2022-09-26T15:45:29.775Z,1.20
2022-09-26T15:47:59.742Z,1.17
2022-09-26T15:50:33.173Z,1.27
2022-09-26T15:53:05.216Z,1.27
2022-09-26T15:55:38.455Z,1.10
2022-09-26T15:58:07.971Z,1.40
2022-09-26T16:00:38.237Z,0.90
2022-09-26T16:03:28.529Z,1.30
2022-09-26T16:05:58.100Z,1.20
2022-09-26T16:08:28.656Z,1.10
2022-09-26T16:10:58.137Z,1.10
2022-09-26T16:13:28.003Z,1.33
2022-09-26T16:16:03.355Z,1.40
2022-09-26T16:18:37.317Z,1.43
2022-09-26T16:21:18.553Z,1.10
2022-09-26T16:23:49.259Z,1.53
2022-09-26T16:26:28.724Z,1.40
2022-09-26T16:28:57.807Z,1.47
2022-09-26T16:31:29.531Z,1.70
2022-09-26T16:33:59.366Z,1.30
2022-09-26T16:36:30.249Z,1.37
2022-09-26T16:39:00.604Z,1.30
2022-09-26T16:42:01.693Z,1.50
2022-09-26T16:44:33.623Z,1.13
2022-09-26T16:47:05.466Z,1.63
2022-09-26T16:49:46.681Z,1.03
2022-09-26T16:52:34.331Z,1.17
2022-09-26T16:55:05.933Z,1.50
2022-09-26T16:57:35.559Z,1.50
2022-09-26T17:00:24.944Z,1.30
2022-09-26T17:02:53.214Z,1.50
2022-09-26T17:05:22.439Z,1.30
2022-09-26T17:07:52.142Z,1.43
2022-09-26T17:10:22.168Z,1.67
2022-09-26T17:12:52.856Z,1.40
2022-09-26T17:15:26.962Z,1.60
2022-09-26T17:17:56.827Z,1.40
2022-09-26T17:20:26.903Z,1.57
2022-09-26T17:22:56.687Z,1.30
2022-09-26T17:26:33.622Z,1.73
2022-09-26T17:29:45.640Z,1.20
2022-09-26T17:32:16.901Z,1.40
2022-09-26T17:34:45.488Z,1.50
2022-09-26T17:37:16.076Z,1.63
2022-09-26T17:39:48.333Z,1.43
2022-09-26T17:42:17.141Z,1.80
2022-09-26T17:44:47.679Z,1.50
2022-09-26T17:47:16.732Z,1.80
2022-09-26T17:49:49.368Z,1.53
2022-09-26T17:52:25.166Z,1.53
2022-09-26T17:54:57.849Z,1.50
2022-09-26T17:57:27.808Z,1.70
2022-09-26T17:59:56.300Z,1.70
2022-09-26T18:02:27.716Z,1.53
2022-09-26T18:04:56.855Z,1.43
2022-09-26T18:07:25.144Z,1.40
2022-09-26T18:09:55.442Z,1.40
2022-09-26T18:12:25.425Z,1.70
2022-09-26T18:15:03.188Z,1.50
2022-09-26T18:17:32.163Z,1.50
2022-09-26T18:20:00.478Z,1.90
2022-09-26T18:22:31.997Z,1.90
2022-09-26T18:25:05.185Z,1.97
2022-09-26T18:27:36.675Z,1.77
2022-09-26T18:30:06.054Z,2.00
2022-09-26T18:32:36.630Z,1.80
2022-09-26T18:35:05.230Z,2.03
2022-09-26T18:37:33.452Z,1.77
2022-09-26T18:40:04.551Z,1.60
2022-09-26T18:42:33.074Z,1.73
2022-09-26T18:45:04.861Z,1.67
2022-09-26T18:48:04.986Z,1.63
2022-09-26T18:50:36.549Z,1.73
2022-09-26T18:53:05.234Z,1.70
2022-09-26T18:55:52.377Z,1.63
2022-09-26T18:58:27.704Z,1.70
2022-09-26T19:00:58.171Z,2.13
2022-09-26T19:03:28.736Z,2.00
2022-09-26T19:06:01.704Z,2.07
2022-09-26T19:08:33.987Z,1.67
2022-09-26T19:11:11.048Z,1.80
2022-09-26T19:13:39.615Z,1.90
2022-09-26T19:16:08.388Z,1.87
2022-09-26T19:18:36.959Z,1.73
2022-09-26T19:21:08.442Z,2.30
2022-09-26T19:23:37.137Z,2.10
2022-09-26T19:26:07.088Z,2.00
2022-09-26T19:28:36.653Z,1.90
2022-09-26T19:31:05.405Z,2.80
2022-09-26T19:33:33.808Z,2.37
2022-09-26T19:36:02.474Z,2.70
2022-09-26T19:38:30.930Z,2.50
2022-09-26T19:40:59.391Z,2.50
2022-09-26T19:43:29.195Z,2.43
2022-09-26T19:45:57.574Z,2.10
2022-09-26T19:48:25.869Z,2.47
2022-09-26T19:50:54.269Z,2.20
2022-09-26T19:53:24.366Z,2.10
2022-09-26T19:55:55.757Z,2.17
2022-09-26T19:58:25.587Z,1.50
2022-09-26T20:00:56.839Z,2.27
2022-09-26T20:03:28.668Z,1.80
2022-09-26T20:05:57.334Z,1.77
2022-09-26T20:08:27.065Z,2.23
2022-09-26T20:10:56.632Z,2.43
2022-09-26T20:13:24.964Z,1.87
2022-09-26T20:15:56.713Z,2.03
2022-09-26T20:18:25.184Z,2.10
2022-09-26T20:20:55.271Z,2.20
2022-09-26T20:23:25.254Z,2.40
2022-09-26T20:25:54.897Z,2.33
2022-09-26T20:28:23.539Z,2.90
2022-09-26T20:30:56.541Z,2.83
2022-09-26T20:33:27.543Z,3.33
2022-09-26T20:36:03.186Z,2.20
2022-09-26T20:38:35.729Z,2.63
2022-09-26T20:41:12.722Z,2.80
2022-09-26T20:43:42.788Z,3.53
2022-09-26T20:46:11.619Z,3.70
2022-09-26T20:48:43.078Z,2.70
2022-09-26T20:51:17.940Z,3.03
2022-09-26T20:53:46.268Z,3.10
2022-09-26T20:56:20.858Z,3.00
2022-09-26T20:58:50.055Z,3.20
2022-09-26T21:01:19.715Z,3.17
2022-09-26T21:03:51.402Z,2.87
2022-09-26T21:06:22.079Z,2.93
2022-09-26T21:08:50.353Z,3.50
2022-09-26T21:11:20.416Z,2.63
2022-09-26T21:13:48.759Z,2.60
2022-09-26T21:16:19.302Z,2.90
2022-09-26T21:18:51.255Z,2.80
2022-09-26T21:21:22.541Z,2.83
2022-09-26T21:24:28.214Z,2.77
2022-09-26T21:26:56.536Z,2.30
2022-09-26T21:29:25.264Z,2.87
2022-09-26T21:31:56.145Z,2.50
2022-09-26T21:34:27.927Z,2.63
2022-09-26T21:36:59.412Z,2.80
2022-09-26T21:39:28.769Z,3.00
2022-09-26T21:41:59.907Z,2.50
2022-09-26T21:44:30.497Z,2.93
2022-09-26T21:46:58.799Z,3.13
2022-09-26T21:49:28.464Z,2.80
2022-09-26T21:51:59.872Z,2.77
2022-09-26T21:54:32.586Z,2.73
2022-09-26T21:57:04.800Z,3.10
2022-09-26T21:59:33.161Z,3.20
2022-09-26T22:02:01.543Z,2.90
2022-09-26T22:04:31.169Z,3.00
2022-09-26T22:06:59.428Z,3.10
2022-09-26T22:09:27.717Z,2.67
2022-09-26T22:11:55.976Z,2.70
2022-09-26T22:14:24.230Z,2.50
2022-09-26T22:16:52.616Z,3.10
2022-09-26T22:19:21.035Z,2.73
2022-09-26T22:21:51.078Z,2.40
2022-09-26T22:24:19.512Z,2.43
2022-09-26T22:26:47.883Z,2.60
2022-09-26T22:29:16.629Z,2.87
2022-09-26T22:31:45.256Z,2.33
2022-09-26T22:34:14.045Z,2.60
2022-09-26T22:36:42.303Z,2.23
2022-09-26T22:39:11.882Z,2.30
2022-09-26T22:41:40.144Z,2.67
2022-09-26T22:44:09.187Z,2.83
2022-09-26T22:46:38.415Z,2.43
2022-09-26T22:49:06.952Z,2.60
2022-09-26T22:51:35.199Z,2.50
2022-09-26T22:54:03.725Z,2.00
2022-09-26T22:56:33.290Z,2.57
2022-09-26T22:59:02.907Z,2.40
2022-09-26T23:01:31.221Z,2.27
2022-09-26T23:04:00.452Z,2.17
2022-09-26T23:06:29.444Z,2.40
2022-09-26T23:08:58.006Z,2.57
2022-09-26T23:11:27.855Z,2.23
2022-09-26T23:13:57.414Z,2.00
2022-09-26T23:16:27.122Z,2.30
2022-09-26T23:18:55.933Z,2.00
2022-09-26T23:21:25.950Z,2.00
2022-09-26T23:23:55.824Z,2.10
2022-09-26T23:26:25.968Z,2.13
2022-09-26T23:28:55.473Z,2.00
2022-09-26T23:31:26.155Z,1.73
2022-09-26T23:33:55.347Z,1.70
2022-09-26T23:36:24.250Z,1.80
2022-09-26T23:38:52.588Z,2.00
2022-09-26T23:41:20.866Z,2.20
2022-09-26T23:43:49.481Z,1.73
2022-09-26T23:46:17.775Z,1.90
2022-09-26T23:48:47.493Z,1.97
2022-09-26T23:51:15.740Z,1.90
2022-09-26T23:53:43.948Z,1.73
2022-09-26T23:56:14.354Z,2.00
2022-09-26T23:58:42.655Z,1.67
